createdAt,value
2023-08-11T00:01:28.072Z,15.90
2023-08-11T00:04:01.008Z,16.00
2023-08-11T00:06:38.265Z,15.90
2023-08-11T00:09:12.343Z,16.00
2023-08-11T00:11:45.694Z,15.90
2023-08-11T00:14:18.983Z,15.90
2023-08-11T00:16:51.972Z,15.90
2023-08-11T00:19:24.946Z,15.90
2023-08-11T00:21:58.493Z,15.80
2023-08-11T00:24:31.479Z,15.90
2023-08-11T00:27:05.403Z,15.80
2023-08-11T00:29:38.741Z,15.80
2023-08-11T00:32:12.072Z,15.70
2023-08-11T00:34:44.998Z,15.70
2023-08-11T00:37:17.911Z,15.60
2023-08-11T00:39:52.685Z,15.60
2023-08-11T00:42:26.456Z,15.60
2023-08-11T00:45:00.426Z,15.60
2023-08-11T00:47:34.937Z,15.50
2023-08-11T00:50:08.840Z,15.50
2023-08-11T00:52:42.076Z,15.40
2023-08-11T00:55:15.914Z,15.40
2023-08-11T00:57:48.984Z,15.40
2023-08-11T01:00:22.745Z,15.40
2023-08-11T01:02:57.233Z,15.30
2023-08-11T01:05:34.853Z,15.30
2023-08-11T01:08:21.741Z,15.20
2023-08-11T01:11:09.327Z,15.20
2023-08-11T01:13:49.238Z,15.20
2023-08-11T01:16:25.224Z,15.20
2023-08-11T01:18:59.488Z,15.20
2023-08-11T01:21:36.531Z,15.10
2023-08-11T01:24:09.863Z,15.10
2023-08-11T01:26:42.841Z,15.00
2023-08-11T01:29:15.859Z,15.00
2023-08-11T01:31:48.754Z,15.00
2023-08-11T01:34:22.403Z,15.00
2023-08-11T01:37:00.834Z,15.00
2023-08-11T01:39:34.783Z,15.00
2023-08-11T01:42:07.799Z,15.00
2023-08-11T01:44:40.950Z,15.00
2023-08-11T01:47:14.026Z,15.00
2023-08-11T01:49:48.164Z,15.00
2023-08-11T01:52:22.151Z,15.00
2023-08-11T01:54:55.083Z,15.00
2023-08-11T01:57:28.141Z,15.00
2023-08-11T02:00:01.103Z,14.90
2023-08-11T02:02:46.945Z,14.90
2023-08-11T02:05:19.966Z,14.90
2023-08-11T02:07:54.346Z,14.80
2023-08-11T02:10:27.566Z,14.80
2023-08-11T02:13:01.863Z,14.80
2023-08-11T02:15:35.548Z,14.90
2023-08-11T02:18:10.051Z,14.80
2023-08-11T02:20:43.642Z,14.80
2023-08-11T02:23:16.554Z,14.80
2023-08-11T02:25:49.431Z,14.70
2023-08-11T02:28:22.614Z,14.70
2023-08-11T02:30:57.001Z,14.70
2023-08-11T02:33:29.876Z,14.80
2023-08-11T02:36:04.035Z,14.70
2023-08-11T02:38:36.924Z,14.70
2023-08-11T02:41:09.840Z,14.60
2023-08-11T02:43:42.913Z,14.50
2023-08-11T02:46:15.794Z,14.60
2023-08-11T02:48:49.072Z,14.50
2023-08-11T02:51:23.014Z,14.60
2023-08-11T02:53:55.979Z,14.60
2023-08-11T02:56:29.412Z,14.60
2023-08-11T02:59:03.089Z,14.50
2023-08-11T03:01:36.032Z,14.50
2023-08-11T03:04:09.368Z,14.50
2023-08-11T03:06:43.689Z,14.50
2023-08-11T03:09:16.728Z,14.50
2023-08-11T03:11:49.651Z,14.50
2023-08-11T03:14:22.638Z,14.50
2023-08-11T03:16:56.574Z,14.60
2023-08-11T03:19:29.594Z,14.60
2023-08-11T03:22:03.226Z,14.60
2023-08-11T03:24:37.177Z,14.60
2023-08-11T03:27:10.561Z,14.50
2023-08-11T03:29:43.870Z,14.50
2023-08-11T03:32:16.942Z,14.50
2023-08-11T03:34:50.414Z,14.40
2023-08-11T03:37:23.534Z,14.40
2023-08-11T03:39:56.447Z,14.50
2023-08-11T03:42:29.402Z,14.40
2023-08-11T03:45:05.759Z,14.50
2023-08-11T03:47:41.179Z,14.60
2023-08-11T03:50:16.399Z,14.60
2023-08-11T03:52:49.752Z,14.70
2023-08-11T03:55:23.598Z,14.70
2023-08-11T03:57:58.173Z,14.70
2023-08-11T04:00:33.786Z,14.70
2023-08-11T04:03:14.163Z,14.70
2023-08-11T04:05:47.072Z,14.70
2023-08-11T04:08:20.738Z,14.70
2023-08-11T04:10:56.751Z,14.60
2023-08-11T04:13:29.878Z,14.60
2023-08-11T04:16:05.309Z,14.60
2023-08-11T04:18:38.509Z,14.50
2023-08-11T04:21:11.702Z,14.60
2023-08-11T04:23:44.632Z,14.60
2023-08-11T04:26:19.083Z,14.60
2023-08-11T04:28:52.823Z,14.70
2023-08-11T04:31:26.146Z,14.70
2023-08-11T04:33:59.040Z,14.80
2023-08-11T04:36:32.425Z,14.80
2023-08-11T04:39:06.952Z,14.90
2023-08-11T04:41:40.694Z,14.90
2023-08-11T04:44:15.466Z,14.90
2023-08-11T04:46:48.369Z,15.00
2023-08-11T04:49:21.675Z,15.00
2023-08-11T04:51:54.597Z,15.00
2023-08-11T04:54:27.655Z,15.10
2023-08-11T04:57:02.024Z,15.10
2023-08-11T04:59:35.416Z,15.10
2023-08-11T05:02:08.850Z,15.10
2023-08-11T05:04:44.699Z,15.20
2023-08-11T05:07:17.703Z,15.20
2023-08-11T05:09:51.021Z,15.30
2023-08-11T05:12:23.950Z,15.40
2023-08-11T05:14:56.974Z,15.30
2023-08-11T05:17:30.069Z,15.40
2023-08-11T05:20:07.746Z,15.50
2023-08-11T05:22:40.988Z,15.60
2023-08-11T05:25:13.928Z,15.60
2023-08-11T05:27:46.766Z,15.60
2023-08-11T05:30:20.157Z,15.80
2023-08-11T05:32:53.839Z,15.80
2023-08-11T05:35:27.696Z,16.00
2023-08-11T05:38:02.922Z,16.10
2023-08-11T05:40:35.895Z,16.20
2023-08-11T05:43:09.075Z,16.40
2023-08-11T05:45:42.352Z,16.50
2023-08-11T05:48:15.439Z,16.90
2023-08-11T05:50:48.741Z,17.00
2023-08-11T05:53:21.617Z,17.10
2023-08-11T05:55:54.711Z,17.20
2023-08-11T05:58:27.762Z,17.40
2023-08-11T06:01:04.205Z,17.50
2023-08-11T06:03:37.204Z,17.50
2023-08-11T06:06:10.223Z,17.60
2023-08-11T06:08:43.125Z,17.70
2023-08-11T06:11:16.002Z,17.80
2023-08-11T06:13:48.886Z,18.00
2023-08-11T06:16:21.805Z,18.20
2023-08-11T06:18:54.899Z,18.30
2023-08-11T06:21:28.690Z,18.40
2023-08-11T06:24:03.542Z,18.50
2023-08-11T06:26:36.765Z,18.70
2023-08-11T06:29:09.872Z,18.80
2023-08-11T06:31:44.086Z,18.90
2023-08-11T06:34:18.945Z,18.90
2023-08-11T06:36:51.803Z,19.00
2023-08-11T06:39:24.683Z,19.20
2023-08-11T06:41:57.981Z,19.30
2023-08-11T06:44:50.870Z,19.40
2023-08-11T06:47:24.910Z,19.60
2023-08-11T06:49:57.867Z,19.70
2023-08-11T06:52:31.240Z,19.80
2023-08-11T06:55:06.888Z,19.90
2023-08-11T06:57:39.867Z,20.10
2023-08-11T07:00:13.307Z,20.20
2023-08-11T07:02:46.415Z,20.30
2023-08-11T07:05:19.427Z,20.50
2023-08-11T07:07:52.529Z,20.60
2023-08-11T07:10:25.387Z,20.70
2023-08-11T07:12:58.874Z,20.90
2023-08-11T07:15:33.237Z,21.20
2023-08-11T07:18:06.671Z,21.20
2023-08-11T07:20:43.929Z,21.40
2023-08-11T07:23:17.438Z,21.60
2023-08-11T07:25:50.385Z,21.90
2023-08-11T07:28:23.252Z,22.10
2023-08-11T07:30:56.389Z,22.30
2023-08-11T07:33:30.840Z,22.60
2023-08-11T07:36:03.817Z,22.90
2023-08-11T07:38:36.806Z,23.10
2023-08-11T07:41:09.911Z,23.40
2023-08-11T07:43:42.960Z,23.70
2023-08-11T07:46:15.919Z,24.10
2023-08-11T07:48:49.854Z,24.60
2023-08-11T07:51:22.906Z,25.10
2023-08-11T07:53:56.009Z,25.70
2023-08-11T07:56:29.672Z,26.20
2023-08-11T07:59:03.239Z,26.60
2023-08-11T08:01:37.743Z,27.10
2023-08-11T08:04:11.825Z,27.50
2023-08-11T08:06:46.695Z,27.70
2023-08-11T08:09:20.510Z,27.90
2023-08-11T08:11:53.954Z,28.30
2023-08-11T08:14:26.852Z,28.50
2023-08-11T08:17:09.015Z,28.70
2023-08-11T08:19:42.011Z,29.00
2023-08-11T08:22:14.991Z,29.20
2023-08-11T08:24:49.338Z,29.30
2023-08-11T08:27:25.350Z,29.40
2023-08-11T08:29:58.282Z,29.60
2023-08-11T08:32:31.302Z,29.90
2023-08-11T08:35:04.492Z,29.90
2023-08-11T08:37:37.848Z,30.40
2023-08-11T08:40:11.453Z,30.30
2023-08-11T08:42:45.303Z,30.40
2023-08-11T08:45:18.882Z,30.70
2023-08-11T08:47:54.110Z,30.90
2023-08-11T08:50:27.639Z,30.90
2023-08-11T08:53:02.471Z,31.10
2023-08-11T08:55:35.766Z,31.20
2023-08-11T08:58:10.727Z,31.30
2023-08-11T09:00:44.539Z,31.40
2023-08-11T09:03:18.001Z,31.50
2023-08-11T09:05:51.537Z,31.50
2023-08-11T09:08:25.234Z,31.30
2023-08-11T09:10:59.045Z,31.30
2023-08-11T09:13:33.845Z,31.20
2023-08-11T09:16:07.325Z,31.40
2023-08-11T09:18:40.678Z,31.60
2023-08-11T09:21:15.174Z,31.80
2023-08-11T09:23:48.202Z,32.10
2023-08-11T09:26:23.081Z,32.40
2023-08-11T09:28:57.062Z,32.40
2023-08-11T09:31:35.073Z,32.30
2023-08-11T09:34:18.840Z,32.30
2023-08-11T09:36:52.116Z,32.30
2023-08-11T09:39:25.385Z,32.40
2023-08-11T09:41:58.557Z,32.60
2023-08-11T09:44:31.803Z,32.70
2023-08-11T09:47:15.448Z,32.60
2023-08-11T09:49:50.902Z,32.50
2023-08-11T09:52:24.268Z,32.50
2023-08-11T09:54:58.466Z,32.60
2023-08-11T09:57:36.014Z,32.60
2023-08-11T10:00:13.008Z,32.60
2023-08-11T10:02:58.440Z,32.60
2023-08-11T10:05:36.351Z,32.50
2023-08-11T10:08:13.785Z,32.70
2023-08-11T10:10:50.612Z,32.70
2023-08-11T10:13:27.675Z,32.60
2023-08-11T10:16:03.161Z,32.80
2023-08-11T10:18:37.130Z,32.90
2023-08-11T10:21:10.659Z,33.10
2023-08-11T10:23:44.517Z,33.00
2023-08-11T10:26:17.610Z,33.00
2023-08-11T10:28:51.745Z,33.00
2023-08-11T10:31:26.276Z,32.90
2023-08-11T10:34:00.105Z,32.80
2023-08-11T10:36:35.288Z,32.80
2023-08-11T10:39:09.839Z,32.90
2023-08-11T10:41:46.816Z,33.10
2023-08-11T10:44:20.966Z,33.30
2023-08-11T10:46:54.835Z,33.40
2023-08-11T10:49:42.642Z,33.40
2023-08-11T10:52:15.728Z,33.40
2023-08-11T10:54:52.692Z,33.50
2023-08-11T10:57:25.810Z,33.50
2023-08-11T10:59:59.092Z,33.60
2023-08-11T11:02:33.371Z,33.70
2023-08-11T11:05:09.094Z,33.80
2023-08-11T11:07:43.418Z,33.80
2023-08-11T11:10:19.678Z,33.80
2023-08-11T11:12:54.356Z,34.00
2023-08-11T11:15:34.291Z,34.00
2023-08-11T11:18:08.349Z,34.00
2023-08-11T11:20:41.744Z,34.20
2023-08-11T11:23:14.959Z,34.40
2023-08-11T11:25:48.015Z,34.50
2023-08-11T11:28:20.995Z,34.60
2023-08-11T11:30:54.941Z,34.60
2023-08-11T11:33:28.806Z,34.60
2023-08-11T11:36:02.393Z,34.70
2023-08-11T11:38:35.605Z,34.70
2023-08-11T11:41:13.100Z,34.60
2023-08-11T11:43:48.622Z,34.40
2023-08-11T11:46:22.776Z,34.20
2023-08-11T11:48:56.646Z,34.10
2023-08-11T11:51:31.486Z,34.10
2023-08-11T11:54:05.206Z,34.00
2023-08-11T11:56:41.735Z,33.80
2023-08-11T11:59:17.427Z,33.80
2023-08-11T12:01:50.694Z,33.90
2023-08-11T12:04:27.265Z,34.10
2023-08-11T12:07:00.559Z,34.20
2023-08-11T12:09:50.196Z,34.30
2023-08-11T12:12:26.379Z,34.30
2023-08-11T12:15:07.328Z,34.20
2023-08-11T12:17:40.307Z,34.20
2023-08-11T12:20:13.593Z,34.30
2023-08-11T12:22:46.508Z,34.00
2023-08-11T12:25:19.418Z,33.70
2023-08-11T12:27:55.147Z,33.60
2023-08-11T12:30:27.995Z,33.70
2023-08-11T12:33:03.775Z,33.90
2023-08-11T12:35:36.858Z,34.10
2023-08-11T12:38:13.328Z,34.20
2023-08-11T12:40:47.995Z,34.10
2023-08-11T12:43:20.963Z,34.30
2023-08-11T12:45:53.924Z,34.30
2023-08-11T12:48:26.754Z,34.20
2023-08-11T12:50:59.635Z,34.20
2023-08-11T12:53:32.642Z,34.20
2023-08-11T12:56:06.457Z,34.20
2023-08-11T12:58:40.336Z,34.30
2023-08-11T13:01:16.267Z,34.40
2023-08-11T13:03:52.896Z,34.40
2023-08-11T13:06:25.970Z,34.20
2023-08-11T13:08:59.086Z,34.20
2023-08-11T13:11:32.892Z,34.40
2023-08-11T13:14:06.924Z,34.40
2023-08-11T13:16:40.046Z,34.50
2023-08-11T13:19:14.680Z,34.30
2023-08-11T13:21:47.644Z,34.60
2023-08-11T13:24:21.342Z,34.60
2023-08-11T13:26:54.568Z,34.60
2023-08-11T13:29:27.837Z,34.50
2023-08-11T13:32:01.278Z,34.50
2023-08-11T13:34:34.255Z,34.50
2023-08-11T13:37:07.157Z,34.60
2023-08-11T13:39:40.495Z,34.50
2023-08-11T13:42:13.428Z,34.50
2023-08-11T13:44:46.520Z,34.40
2023-08-11T13:47:20.627Z,34.40
2023-08-11T13:49:53.514Z,34.40
2023-08-11T13:52:26.893Z,34.40
2023-08-11T13:55:01.526Z,34.30
2023-08-11T13:57:34.617Z,34.30
2023-08-11T14:00:09.859Z,34.50
2023-08-11T14:02:43.203Z,34.40
2023-08-11T14:05:16.875Z,34.30
2023-08-11T14:07:51.614Z,34.30
2023-08-11T14:10:25.108Z,34.50
2023-08-11T14:12:57.942Z,34.50
2023-08-11T14:15:32.302Z,34.80
2023-08-11T14:18:07.652Z,35.00
2023-08-11T14:20:40.658Z,35.00
2023-08-11T14:23:13.854Z,34.80
2023-08-11T14:25:47.567Z,34.50
2023-08-11T14:28:20.447Z,34.20
2023-08-11T14:30:55.715Z,33.90
2023-08-11T14:33:29.360Z,33.80
2023-08-11T14:36:11.948Z,33.50
2023-08-11T14:38:45.607Z,33.30
2023-08-11T14:41:18.481Z,33.10
2023-08-11T14:43:51.420Z,32.90
2023-08-11T14:46:24.478Z,32.60
2023-08-11T14:48:57.499Z,32.40
2023-08-11T14:51:30.440Z,32.30
2023-08-11T14:54:04.045Z,32.40
2023-08-11T14:56:37.603Z,32.40
2023-08-11T14:59:10.601Z,32.40
2023-08-11T15:01:43.530Z,32.40
2023-08-11T15:04:16.719Z,32.50
2023-08-11T15:06:49.932Z,32.50
2023-08-11T15:09:23.416Z,32.40
2023-08-11T15:11:58.912Z,32.20
2023-08-11T15:14:31.939Z,32.20
2023-08-11T15:17:04.931Z,32.10
2023-08-11T15:19:37.922Z,32.00
2023-08-11T15:22:11.020Z,31.90
2023-08-11T15:24:44.233Z,31.90
2023-08-11T15:27:19.124Z,31.90
2023-08-11T15:29:52.052Z,31.90
2023-08-11T15:32:25.216Z,31.90
2023-08-11T15:34:58.255Z,31.90
2023-08-11T15:37:31.333Z,31.90
2023-08-11T15:40:06.215Z,31.80
2023-08-11T15:42:39.151Z,31.70
2023-08-11T15:45:12.270Z,31.50
2023-08-11T15:47:45.246Z,31.50
2023-08-11T15:50:18.199Z,31.50
2023-08-11T15:52:51.580Z,31.50
2023-08-11T15:58:10.560Z,31.50
2023-08-11T16:00:44.359Z,31.50
2023-08-11T16:03:17.568Z,31.50
2023-08-11T16:05:50.689Z,31.50
2023-08-11T16:08:23.716Z,31.50
2023-08-11T16:10:56.782Z,31.50
2023-08-11T16:13:29.854Z,31.50
2023-08-11T16:16:03.109Z,31.50
2023-08-11T16:18:36.320Z,31.50
2023-08-11T16:21:09.592Z,31.20
2023-08-11T16:23:42.489Z,31.30
2023-08-11T16:26:15.437Z,31.10
2023-08-11T16:28:48.283Z,31.00
2023-08-11T16:31:21.310Z,31.00
2023-08-11T16:33:54.351Z,30.90
2023-08-11T16:36:28.661Z,30.80
2023-08-11T16:39:02.739Z,30.70
2023-08-11T16:41:35.621Z,30.60
2023-08-11T16:44:10.655Z,30.40
2023-08-11T16:46:43.578Z,30.50
2023-08-11T16:49:16.499Z,30.30
2023-08-11T16:51:49.437Z,30.20
2023-08-11T16:54:22.352Z,30.10
2023-08-11T16:56:55.271Z,30.00
2023-08-11T16:59:28.216Z,29.90
2023-08-11T17:02:02.207Z,29.80
2023-08-11T17:04:35.272Z,29.80
2023-08-11T17:07:08.130Z,29.70
2023-08-11T17:09:41.188Z,29.70
2023-08-11T17:12:14.515Z,29.60
2023-08-11T17:14:47.712Z,29.60
2023-08-11T17:17:20.910Z,29.50
2023-08-11T17:19:53.979Z,29.50
2023-08-11T17:22:27.002Z,29.50
2023-08-11T17:25:00.025Z,29.40
2023-08-11T17:27:34.664Z,29.30
2023-08-11T17:30:09.118Z,29.30
2023-08-11T17:32:43.796Z,29.20
2023-08-11T17:35:16.761Z,29.10
2023-08-11T17:37:49.691Z,29.00
2023-08-11T17:40:22.533Z,29.00
2023-08-11T17:42:55.369Z,28.90
2023-08-11T17:45:28.314Z,28.80
2023-08-11T17:48:02.648Z,28.80
2023-08-11T17:50:36.159Z,28.60
2023-08-11T17:53:09.237Z,28.60
2023-08-11T17:55:42.159Z,28.40
2023-08-11T17:58:15.201Z,28.40
2023-08-11T18:00:48.162Z,28.30
2023-08-11T18:03:22.856Z,28.20
2023-08-11T18:05:55.737Z,28.20
2023-08-11T18:08:28.668Z,28.20
2023-08-11T18:11:01.564Z,28.10
2023-08-11T18:13:35.053Z,28.10
2023-08-11T18:16:07.903Z,27.90
2023-08-11T18:18:40.800Z,27.90
2023-08-11T18:21:20.541Z,27.70
2023-08-11T18:23:55.527Z,27.70
2023-08-11T18:26:30.287Z,27.60
2023-08-11T18:29:03.604Z,27.50
2023-08-11T18:31:36.856Z,27.40
2023-08-11T18:34:09.722Z,27.30
2023-08-11T18:36:42.615Z,27.10
2023-08-11T18:39:15.587Z,27.00
2023-08-11T18:41:48.457Z,26.90
2023-08-11T18:44:22.739Z,26.80
2023-08-11T18:46:55.614Z,26.70
2023-08-11T18:49:28.891Z,26.50
2023-08-11T18:52:02.564Z,26.50
2023-08-11T18:54:35.486Z,26.40
2023-08-11T18:57:13.306Z,26.30
2023-08-11T18:59:46.635Z,26.10
2023-08-11T19:02:19.733Z,26.00
2023-08-11T19:04:56.306Z,25.80
2023-08-11T19:07:29.570Z,25.70
2023-08-11T19:10:04.733Z,25.60
2023-08-11T19:12:37.831Z,25.50
2023-08-11T19:15:11.369Z,25.40
2023-08-11T19:17:44.599Z,25.30
2023-08-11T19:20:17.840Z,25.20
2023-08-11T19:22:50.873Z,25.10
2023-08-11T19:25:23.966Z,25.00
2023-08-11T19:27:57.568Z,24.90
2023-08-11T19:30:30.811Z,24.90
2023-08-11T19:33:04.183Z,24.70
2023-08-11T19:35:37.713Z,24.60
2023-08-11T19:38:11.263Z,24.50
2023-08-11T19:40:51.288Z,24.50
2023-08-11T19:43:25.079Z,24.40
2023-08-11T19:46:01.287Z,24.30
2023-08-11T19:48:34.548Z,24.20
2023-08-11T19:51:08.112Z,24.10
2023-08-11T19:53:46.679Z,24.00
2023-08-11T19:56:19.611Z,23.80
2023-08-11T19:58:52.745Z,23.70
2023-08-11T20:01:28.774Z,23.50
2023-08-11T20:04:01.654Z,23.50
2023-08-11T20:06:34.803Z,23.50
2023-08-11T20:09:15.432Z,23.40
2023-08-11T20:11:48.657Z,23.30
2023-08-11T20:14:26.556Z,23.30
2023-08-11T20:16:59.692Z,23.20
2023-08-11T20:19:35.225Z,23.20
2023-08-11T20:22:08.219Z,23.00
2023-08-11T20:24:41.980Z,22.90
2023-08-11T20:27:15.068Z,22.80
2023-08-11T20:29:49.179Z,22.80
2023-08-11T20:32:22.432Z,22.60
2023-08-11T20:34:55.456Z,22.50
2023-08-11T20:37:28.996Z,22.40
2023-08-11T20:40:11.675Z,22.40
2023-08-11T20:42:44.671Z,22.30
2023-08-11T20:45:19.137Z,22.20
2023-08-11T20:47:54.251Z,22.10
2023-08-11T20:50:27.156Z,22.10
2023-08-11T20:53:00.193Z,22.00
2023-08-11T20:55:34.432Z,21.90
2023-08-11T20:58:07.550Z,21.90
2023-08-11T21:00:40.506Z,21.80
2023-08-11T21:03:13.649Z,21.80
2023-08-11T21:05:46.674Z,21.70
2023-08-11T21:08:24.643Z,21.70
2023-08-11T21:10:57.767Z,21.60
2023-08-11T21:13:30.872Z,21.50
2023-08-11T21:16:06.593Z,21.40
2023-08-11T21:18:40.299Z,21.40
2023-08-11T21:21:14.103Z,21.30
2023-08-11T21:23:47.299Z,21.30
2023-08-11T21:26:20.601Z,21.10
2023-08-11T21:28:56.584Z,21.30
2023-08-11T21:31:30.255Z,21.10
2023-08-11T21:34:10.401Z,21.10
2023-08-11T21:36:43.536Z,21.10
2023-08-11T21:39:16.642Z,20.90
2023-08-11T21:41:49.684Z,20.80
2023-08-11T21:44:22.581Z,20.80
2023-08-11T21:46:55.889Z,20.70
2023-08-11T21:49:31.202Z,20.80
2023-08-11T21:52:06.421Z,20.70
2023-08-11T21:54:39.852Z,20.70
2023-08-11T21:57:12.974Z,20.60
2023-08-11T21:59:46.125Z,20.50
2023-08-11T22:02:23.529Z,20.50
2023-08-11T22:05:07.831Z,20.40
2023-08-11T22:07:44.177Z,20.50
2023-08-11T22:10:17.153Z,20.40
2023-08-11T22:12:50.294Z,20.30
2023-08-11T22:15:23.536Z,20.30
2023-08-11T22:17:56.592Z,20.30
2023-08-11T22:20:30.595Z,20.20
2023-08-11T22:23:03.841Z,20.20
2023-08-11T22:25:36.862Z,20.10
2023-08-11T22:28:10.060Z,20.10
2023-08-11T22:30:43.040Z,20.10
2023-08-11T22:33:15.961Z,20.00
2023-08-11T22:35:49.039Z,20.00
2023-08-11T22:38:21.957Z,19.90
2023-08-11T22:40:54.809Z,19.90
2023-08-11T22:43:30.756Z,19.80
2023-08-11T22:46:04.749Z,19.80
2023-08-11T22:48:37.760Z,19.80
2023-08-11T22:51:10.756Z,19.70
2023-08-11T22:53:43.726Z,19.70
2023-08-11T22:56:16.779Z,19.60
2023-08-11T22:58:49.643Z,19.60
2023-08-11T23:01:22.585Z,19.70
2023-08-11T23:03:55.497Z,19.60
2023-08-11T23:06:28.696Z,19.60
2023-08-11T23:09:01.668Z,19.60
2023-08-11T23:11:35.415Z,19.50
2023-08-11T23:14:08.364Z,19.50
2023-08-11T23:16:41.457Z,19.40
2023-08-11T23:19:14.566Z,19.30
2023-08-11T23:21:47.449Z,19.30
2023-08-11T23:24:20.543Z,19.30
2023-08-11T23:26:53.423Z,19.30
2023-08-11T23:29:26.540Z,19.20
2023-08-11T23:31:59.490Z,19.20
2023-08-11T23:34:32.423Z,19.20
2023-08-11T23:37:05.859Z,19.20
2023-08-11T23:39:40.263Z,19.20
2023-08-11T23:42:13.425Z,19.10
2023-08-11T23:44:46.376Z,19.10
2023-08-11T23:47:19.535Z,18.90
2023-08-11T23:49:52.477Z,18.90
2023-08-11T23:52:25.565Z,19.00
2023-08-11T23:55:05.267Z,18.90
2023-08-11T23:57:39.129Z,18.90
